aviador You're here:

OIII Decoded Metar

TEHERAN in IRAN
Report Time2018-04-26 01:30:00
UTC Time2018-04-26 01:56:26
Flight Rules vfr VFR
WindCalm
Visibility9999 m
Phenomena:N/A
Clouds:Scattered 100 Hf
Expected CloudBase > 5,200 ft AGL from Temp-Dew spread
CeilingNone
Temp15°C (ISA +8)
Dew Point02°C (42% RH)
AAT13.4°C
QNH1019 hPa
Density Alt4,718 ft
Elevation3,907 ft
Report Wrong Elevation
Raw Report
METAR OIII 260130Z 00000KT 9999 SCT100 15/02 Q1019 A3010=

Extra information for OIII:More info

Metar Taf Metar & Taf Last 4 Metars F.Rules Stats Wind Profile Meteogram Temp Stats Airport Information Weather charts Add Link Nearby VenuesMetar ALERT Operation Metar Decoded Social comments